createdAt,value
2022-10-17T00:02:10.180Z,98224.27
2022-10-17T00:04:36.762Z,98219.98
2022-10-17T00:07:03.431Z,98217.06
2022-10-17T00:09:30.176Z,98220.63
2022-10-17T00:11:56.811Z,98225.61
2022-10-17T00:14:26.389Z,98225.02
2022-10-17T00:16:53.004Z,98228.79
2022-10-17T00:19:19.727Z,98227.73
2022-10-17T00:21:48.895Z,98227.52
2022-10-17T00:24:15.702Z,98233.49
2022-10-17T00:26:42.350Z,98238.11
2022-10-17T00:29:09.017Z,98232.88
2022-10-17T00:31:35.792Z,98228.15
2022-10-17T00:34:02.531Z,98224.26
2022-10-17T00:36:29.558Z,98221.48
2022-10-17T00:38:58.703Z,98220.38
2022-10-17T00:41:29.619Z,98227.11
2022-10-17T00:43:58.126Z,98224.39
2022-10-17T00:46:28.291Z,98235.29
2022-10-17T00:48:56.445Z,98236.25
2022-10-17T00:51:53.363Z,98234.92
2022-10-17T00:54:24.688Z,98234.19
2022-10-17T00:56:52.246Z,98232.82
2022-10-17T00:59:22.548Z,98234.77
2022-10-17T01:02:15.646Z,98236.11
2022-10-17T01:04:44.755Z,98237.73
2022-10-17T01:07:12.835Z,98243.86
2022-10-17T01:09:42.275Z,98248.31
2022-10-17T01:12:09.847Z,98246.00
2022-10-17T01:15:10.496Z,98241.86
2022-10-17T01:18:08.858Z,98238.70
2022-10-17T01:20:38.784Z,98250.57
2022-10-17T01:23:27.548Z,98256.39
2022-10-17T01:26:13.180Z,98257.66
2022-10-17T01:28:39.905Z,98254.18
2022-10-17T01:31:16.237Z,98254.67
2022-10-17T01:33:49.698Z,98254.04
2022-10-17T01:36:16.446Z,98253.06
2022-10-17T01:38:48.850Z,98253.55
2022-10-17T01:41:34.221Z,98256.09
2022-10-17T01:44:17.498Z,98254.77
2022-10-17T01:46:54.587Z,98253.77
2022-10-17T01:49:24.823Z,98258.58
2022-10-17T01:51:57.842Z,98260.65
2022-10-17T01:54:30.309Z,98265.27
2022-10-17T01:57:01.174Z,98266.99
2022-10-17T01:59:36.205Z,98275.46
2022-10-17T02:02:06.343Z,98281.94
2022-10-17T02:04:35.268Z,98284.41
2022-10-17T02:07:10.657Z,98286.98
2022-10-17T02:09:37.485Z,98289.06
2022-10-17T02:12:13.165Z,98289.90
2022-10-17T02:15:05.295Z,98288.88
2022-10-17T02:17:48.510Z,98290.28
2022-10-17T02:20:41.685Z,98285.83
2022-10-17T02:23:23.106Z,98291.88
2022-10-17T02:26:08.669Z,98287.77
2022-10-17T02:28:46.738Z,98285.09
2022-10-17T02:31:20.143Z,98286.17
2022-10-17T02:33:49.110Z,98287.66
2022-10-17T02:36:21.496Z,98290.52
2022-10-17T02:38:50.041Z,98293.45
2022-10-17T02:41:19.035Z,98303.37
2022-10-17T02:43:48.633Z,98300.81
2022-10-17T02:46:20.525Z,98301.42
2022-10-17T02:49:01.922Z,98304.77
2022-10-17T02:51:35.349Z,98302.46
2022-10-17T02:54:09.494Z,98304.33
2022-10-17T02:56:45.704Z,98302.74
2022-10-17T02:59:15.086Z,98305.00
2022-10-17T03:01:43.946Z,98300.33
2022-10-17T03:04:13.508Z,98292.89
2022-10-17T03:06:42.525Z,98293.70
2022-10-17T03:09:09.363Z,98301.42
2022-10-17T03:11:36.294Z,98306.80
2022-10-17T03:14:03.085Z,98307.96
2022-10-17T03:16:29.706Z,98306.60
2022-10-17T03:18:56.339Z,98304.95
2022-10-17T03:21:22.939Z,98306.86
2022-10-17T03:23:49.629Z,98310.02
2022-10-17T03:26:17.437Z,98310.35
2022-10-17T03:28:48.544Z,98312.67
2022-10-17T03:31:17.537Z,98316.86
2022-10-17T03:33:44.375Z,98320.20
2022-10-17T03:36:13.652Z,98326.56
2022-10-17T03:38:40.828Z,98325.68
2022-10-17T03:41:08.450Z,98327.39
2022-10-17T03:43:35.598Z,98325.42
2022-10-17T03:46:03.065Z,98325.07
2022-10-17T03:48:30.960Z,98321.94
2022-10-17T03:51:04.577Z,98326.16
2022-10-17T03:53:35.247Z,98328.42
2022-10-17T03:56:12.465Z,98335.62
2022-10-17T03:58:39.950Z,98337.55
2022-10-17T04:01:08.689Z,98342.74
2022-10-17T04:03:38.314Z,98345.14
2022-10-17T04:06:06.199Z,98343.36
2022-10-17T04:08:34.420Z,98339.02
2022-10-17T04:11:08.302Z,98338.67
2022-10-17T04:13:35.422Z,98336.26
2022-10-17T04:16:06.452Z,98334.68
2022-10-17T04:18:34.621Z,98330.80
2022-10-17T04:21:05.768Z,98326.39
2022-10-17T04:23:32.742Z,98330.34
2022-10-17T04:26:05.817Z,98327.28
2022-10-17T04:28:33.272Z,98325.46
2022-10-17T04:31:06.068Z,98332.14
2022-10-17T04:33:37.088Z,98333.85
2022-10-17T04:36:13.299Z,98332.07
2022-10-17T04:38:40.294Z,98323.79
2022-10-17T04:41:14.518Z,98320.41
2022-10-17T04:43:43.421Z,98322.59
2022-10-17T04:46:13.929Z,98327.23
2022-10-17T04:48:41.700Z,98324.06
2022-10-17T04:51:12.935Z,98330.23
2022-10-17T04:53:58.112Z,98329.56
2022-10-17T04:56:25.313Z,98328.27
2022-10-17T04:58:52.055Z,98334.17
2022-10-17T05:01:21.795Z,98336.79
2022-10-17T05:03:52.453Z,98344.63
2022-10-17T05:06:24.290Z,98346.61
2022-10-17T05:09:07.673Z,98343.54
2022-10-17T05:11:37.451Z,98341.67
2022-10-17T05:14:04.888Z,98342.16
2022-10-17T05:16:33.010Z,98342.10
2022-10-17T05:18:59.895Z,98346.96
2022-10-17T05:21:30.048Z,98351.97
2022-10-17T05:23:57.187Z,98363.73
2022-10-17T05:26:24.118Z,98373.95
2022-10-17T05:28:52.980Z,98373.46
2022-10-17T05:31:20.650Z,98380.77
2022-10-17T05:33:47.574Z,98382.00
2022-10-17T05:36:14.517Z,98389.73
2022-10-17T05:38:41.438Z,98389.86
2022-10-17T05:41:09.891Z,98394.98
2022-10-17T05:43:37.534Z,98396.83
2022-10-17T05:46:05.916Z,98401.67
2022-10-17T05:48:33.771Z,98410.20
2022-10-17T05:51:07.322Z,98412.27
2022-10-17T05:53:37.257Z,98416.87
2022-10-17T05:56:07.475Z,98417.35
2022-10-17T05:58:53.211Z,98417.45
2022-10-17T06:01:42.230Z,98426.52
2022-10-17T06:04:09.412Z,98433.23
2022-10-17T06:06:38.765Z,98433.84
2022-10-17T06:09:07.702Z,98430.48
2022-10-17T06:11:37.607Z,98431.34
2022-10-17T06:14:06.785Z,98432.40
2022-10-17T06:16:34.441Z,98434.33
2022-10-17T06:19:01.193Z,98434.04
2022-10-17T06:21:28.470Z,98432.65
2022-10-17T06:24:09.402Z,98434.95
2022-10-17T06:26:38.164Z,98436.67
2022-10-17T06:29:06.692Z,98434.95
2022-10-17T06:31:36.929Z,98434.13
2022-10-17T06:34:06.348Z,98435.17
2022-10-17T06:36:33.014Z,98435.31
2022-10-17T06:39:00.545Z,98440.39
2022-10-17T06:41:33.660Z,98439.17
2022-10-17T06:44:10.492Z,98445.11
2022-10-17T06:46:46.016Z,98445.83
2022-10-17T06:49:15.657Z,98443.66
2022-10-17T06:51:51.377Z,98444.55
2022-10-17T06:54:22.366Z,98443.52
2022-10-17T06:57:04.630Z,98445.77
2022-10-17T06:59:50.223Z,98447.10
2022-10-17T07:02:23.124Z,98453.21
2022-10-17T07:04:50.711Z,98456.39
2022-10-17T07:07:17.464Z,98461.81
2022-10-17T07:09:44.299Z,98460.65
2022-10-17T07:12:13.625Z,98462.25
2022-10-17T07:14:46.687Z,98465.73
2022-10-17T07:17:13.474Z,98465.10
2022-10-17T07:19:42.916Z,98464.17
2022-10-17T07:22:11.781Z,98462.04
2022-10-17T07:24:41.273Z,98465.42
2022-10-17T07:27:39.933Z,98464.25
2022-10-17T07:30:07.779Z,98466.16
2022-10-17T07:32:53.773Z,98474.52
2022-10-17T07:35:21.013Z,98473.98
2022-10-17T07:37:47.809Z,98473.76
2022-10-17T07:40:17.256Z,98485.67
2022-10-17T07:42:44.090Z,98484.27
2022-10-17T07:45:11.179Z,98487.86
2022-10-17T07:47:38.259Z,98489.29
2022-10-17T07:50:08.586Z,98487.16
2022-10-17T07:52:35.119Z,98485.23
2022-10-17T07:55:02.038Z,98483.36
2022-10-17T07:57:28.615Z,98480.54
2022-10-17T07:59:55.381Z,98483.16
2022-10-17T08:02:24.544Z,98486.10
2022-10-17T08:04:54.415Z,98483.27
2022-10-17T08:07:24.349Z,98485.57
2022-10-17T08:09:55.294Z,98486.55
2022-10-17T08:12:22.365Z,98490.48
2022-10-17T08:14:49.060Z,98487.34
2022-10-17T08:17:15.740Z,98491.96
2022-10-17T08:19:42.328Z,98492.77
2022-10-17T08:22:09.050Z,98490.39
2022-10-17T08:24:35.696Z,98487.77
2022-10-17T08:27:03.371Z,98491.80
2022-10-17T08:29:32.309Z,98485.87
2022-10-17T08:32:01.419Z,98487.64
2022-10-17T08:34:29.331Z,98489.44
2022-10-17T08:36:56.138Z,98493.24
2022-10-17T08:39:22.904Z,98492.78
2022-10-17T08:42:08.304Z,98496.44
2022-10-17T08:44:39.481Z,98496.08
2022-10-17T08:47:13.911Z,98501.45
2022-10-17T08:49:51.959Z,98506.02
2022-10-17T08:52:37.458Z,98506.90
2022-10-17T08:55:15.554Z,98506.05
2022-10-17T08:57:43.166Z,98505.50
2022-10-17T09:00:20.042Z,98504.19
2022-10-17T09:03:05.319Z,98502.18
2022-10-17T09:05:49.579Z,98504.44
2022-10-17T09:08:33.055Z,98504.27
2022-10-17T09:11:30.116Z,98507.25
2022-10-17T09:14:21.416Z,98503.69
2022-10-17T09:17:12.565Z,98500.95
2022-10-17T09:20:34.517Z,98501.66
2022-10-17T09:23:10.960Z,98496.70
2022-10-17T09:25:48.805Z,98496.09
2022-10-17T09:28:21.078Z,98497.47
2022-10-17T09:30:56.549Z,98498.69
2022-10-17T09:33:53.819Z,98499.69
2022-10-17T09:36:29.434Z,98493.90
2022-10-17T09:39:07.173Z,98494.04
2022-10-17T09:41:48.062Z,98493.07
2022-10-17T09:44:39.551Z,98494.44
2022-10-17T09:47:22.136Z,98493.31
2022-10-17T09:49:49.796Z,98493.52
2022-10-17T09:52:17.349Z,98494.22
2022-10-17T09:54:52.790Z,98496.05
2022-10-17T09:57:26.142Z,98491.35
2022-10-17T10:00:05.032Z,98494.39
2022-10-17T10:02:41.695Z,98484.10
2022-10-17T10:05:19.953Z,98485.85
2022-10-17T10:08:14.757Z,98479.73
2022-10-17T10:10:42.739Z,98476.67
2022-10-17T10:13:12.829Z,98476.99
2022-10-17T10:16:23.579Z,98477.06
2022-10-17T10:18:52.265Z,98477.96
2022-10-17T10:21:28.047Z,98475.71
2022-10-17T10:24:12.937Z,98473.66
2022-10-17T10:26:48.499Z,98475.21
2022-10-17T10:29:24.585Z,98473.95
2022-10-17T10:31:52.810Z,98475.95
2022-10-17T10:34:28.600Z,98466.58
2022-10-17T10:37:17.037Z,98464.55
2022-10-17T10:40:36.889Z,98466.28
2022-10-17T10:43:05.870Z,98466.10
2022-10-17T10:45:47.604Z,98464.05
2022-10-17T10:48:25.972Z,98457.92
2022-10-17T10:51:00.411Z,98455.58
2022-10-17T10:53:49.598Z,98448.23
2022-10-17T10:56:34.625Z,98445.58
2022-10-17T10:59:20.061Z,98441.31
2022-10-17T11:01:59.845Z,98439.77
2022-10-17T11:04:47.965Z,98436.94
2022-10-17T11:07:22.026Z,98436.98
2022-10-17T11:09:59.871Z,98437.05
2022-10-17T11:12:35.855Z,98435.95
2022-10-17T11:15:08.978Z,98430.68
2022-10-17T11:17:51.340Z,98423.50
2022-10-17T11:20:24.617Z,98428.23
2022-10-17T11:23:01.849Z,98429.00
2022-10-17T11:25:34.033Z,98425.08
2022-10-17T11:28:05.125Z,98421.96
2022-10-17T11:30:47.467Z,98418.19
2022-10-17T11:33:45.625Z,98413.57
2022-10-17T11:36:16.180Z,98417.16
2022-10-17T11:38:52.271Z,98413.38
2022-10-17T11:41:53.305Z,98409.02
2022-10-17T11:44:34.726Z,98414.09
2022-10-17T11:47:37.966Z,98412.05
2022-10-17T11:53:19.131Z,98405.11
2022-10-17T11:55:47.000Z,98405.25
2022-10-17T11:58:36.064Z,98406.81
2022-10-17T12:01:32.903Z,98405.73
2022-10-17T12:04:25.691Z,98399.52
2022-10-17T12:07:01.566Z,98399.95
2022-10-17T12:09:36.652Z,98397.52
2022-10-17T12:12:03.897Z,98399.66
2022-10-17T12:14:41.145Z,98399.65
2022-10-17T12:17:27.838Z,98396.74
2022-10-17T12:20:21.355Z,98395.84
2022-10-17T12:22:50.838Z,98390.90
2022-10-17T12:25:20.990Z,98394.52
2022-10-17T12:27:49.579Z,98392.17
2022-10-17T12:30:17.270Z,98387.19
2022-10-17T12:33:05.739Z,98390.48
2022-10-17T12:35:37.965Z,98390.89
2022-10-17T12:38:17.158Z,98390.70
2022-10-17T12:40:49.206Z,98389.98
2022-10-17T12:43:20.173Z,98384.39
2022-10-17T12:45:52.177Z,98383.36
2022-10-17T12:48:41.798Z,98384.11
2022-10-17T12:51:34.960Z,98386.47
2022-10-17T12:54:14.364Z,98384.73
2022-10-17T12:56:45.255Z,98385.00
2022-10-17T12:59:26.785Z,98383.23
2022-10-17T13:01:58.505Z,98380.06
2022-10-17T13:04:28.034Z,98380.60
2022-10-17T13:06:56.729Z,98375.49
2022-10-17T13:09:34.724Z,98377.30
2022-10-17T13:12:04.890Z,98374.75
2022-10-17T13:14:34.600Z,98378.05
2022-10-17T13:17:04.770Z,98378.81
2022-10-17T13:19:44.008Z,98380.44
2022-10-17T13:22:26.796Z,98383.44
2022-10-17T13:25:07.083Z,98385.23
2022-10-17T13:27:36.029Z,98382.73
2022-10-17T13:30:19.941Z,98382.89
2022-10-17T13:32:46.656Z,98384.15
2022-10-17T13:35:20.234Z,98383.94
2022-10-17T13:37:53.705Z,98383.77
2022-10-17T13:40:44.463Z,98384.51
2022-10-17T13:43:19.288Z,98384.90
2022-10-17T13:45:48.401Z,98382.71
2022-10-17T13:48:37.153Z,98385.80
2022-10-17T13:51:07.870Z,98386.48
2022-10-17T13:53:40.729Z,98384.54
2022-10-17T13:56:33.434Z,98380.92
2022-10-17T13:59:17.985Z,98375.80
2022-10-17T14:01:45.393Z,98375.84
2022-10-17T14:04:19.426Z,98373.48
2022-10-17T14:06:49.592Z,98371.55
2022-10-17T14:09:30.232Z,98369.05
2022-10-17T14:12:18.727Z,98368.36
2022-10-17T14:15:09.720Z,98366.31
2022-10-17T14:17:38.377Z,98368.46
2022-10-17T14:20:34.553Z,98365.76
2022-10-17T14:23:22.319Z,98361.98
2022-10-17T14:25:45.834Z,98362.17
2022-10-17T14:28:13.621Z,98362.17
2022-10-17T14:30:56.750Z,98361.32
2022-10-17T14:33:30.348Z,98362.00
2022-10-17T14:36:00.801Z,98359.19
2022-10-17T14:38:29.316Z,98354.72
2022-10-17T14:43:59.218Z,98358.94
2022-10-17T14:46:27.353Z,98358.45
2022-10-17T14:49:24.576Z,98361.52
2022-10-17T14:52:13.439Z,98360.73
2022-10-17T14:54:44.009Z,98362.36
2022-10-17T14:57:26.190Z,98360.42
2022-10-17T14:59:55.900Z,98363.58
2022-10-17T15:02:24.592Z,98362.58
2022-10-17T15:04:51.744Z,98360.28
2022-10-17T15:07:18.811Z,98357.13
2022-10-17T15:09:50.183Z,98361.05
2022-10-17T15:12:21.086Z,98357.86
2022-10-17T15:14:48.146Z,98363.06
2022-10-17T15:17:20.019Z,98364.08
2022-10-17T15:19:47.474Z,98359.95
2022-10-17T15:22:15.553Z,98361.69
2022-10-17T15:24:42.525Z,98365.52
2022-10-17T15:27:18.818Z,98362.55
2022-10-17T15:29:45.804Z,98363.11
2022-10-17T15:32:13.319Z,98362.23
2022-10-17T15:34:39.989Z,98362.74
2022-10-17T15:37:16.177Z,98366.59
2022-10-17T15:39:42.860Z,98366.36
2022-10-17T15:42:11.610Z,98370.95
2022-10-17T15:44:39.821Z,98372.77
2022-10-17T15:47:15.281Z,98374.41
2022-10-17T15:49:48.803Z,98373.18
2022-10-17T15:52:15.905Z,98372.91
2022-10-17T15:54:42.720Z,98377.02
2022-10-17T15:57:27.092Z,98376.11
2022-10-17T15:59:56.896Z,98373.33
2022-10-17T16:02:24.074Z,98373.72
2022-10-17T16:04:51.976Z,98376.94
2022-10-17T16:07:19.826Z,98383.02
2022-10-17T16:09:47.071Z,98386.09
2022-10-17T16:12:25.933Z,98387.45
2022-10-17T16:14:52.849Z,98389.10
2022-10-17T16:17:19.679Z,98388.65
2022-10-17T16:19:46.499Z,98388.86
2022-10-17T16:22:43.714Z,98393.83
2022-10-17T16:25:18.905Z,98392.58
2022-10-17T16:27:47.384Z,98391.82
2022-10-17T16:30:14.850Z,98392.58
2022-10-17T16:32:51.695Z,98394.03
2022-10-17T16:35:22.068Z,98394.60
2022-10-17T16:37:49.510Z,98397.88
2022-10-17T16:40:17.079Z,98393.09
2022-10-17T16:42:48.638Z,98394.88
2022-10-17T16:45:21.080Z,98395.90
2022-10-17T16:47:49.177Z,98397.73
2022-10-17T16:50:16.500Z,98395.23
2022-10-17T16:52:43.347Z,98401.95
2022-10-17T16:55:10.275Z,98399.70
2022-10-17T16:57:37.159Z,98400.56
2022-10-17T17:00:05.797Z,98401.84
2022-10-17T17:02:32.820Z,98402.68
2022-10-17T17:04:59.804Z,98403.88
2022-10-17T17:07:28.838Z,98407.73
2022-10-17T17:09:55.893Z,98408.50
2022-10-17T17:12:22.813Z,98405.35
2022-10-17T17:14:49.580Z,98410.68
2022-10-17T17:17:24.639Z,98409.27
2022-10-17T17:20:03.616Z,98410.56
2022-10-17T17:22:30.319Z,98406.46
2022-10-17T17:24:57.018Z,98408.95
2022-10-17T17:27:24.689Z,98409.04
2022-10-17T17:29:51.457Z,98410.69
2022-10-17T17:32:18.127Z,98410.92
2022-10-17T17:34:44.872Z,98418.19
2022-10-17T17:37:11.660Z,98421.41
2022-10-17T17:39:44.962Z,98422.39
2022-10-17T17:42:11.741Z,98425.17
2022-10-17T17:44:38.584Z,98425.84
2022-10-17T17:47:05.388Z,98428.98
2022-10-17T17:49:32.109Z,98425.10
2022-10-17T17:51:58.872Z,98425.73
2022-10-17T17:54:25.666Z,98427.63
2022-10-17T17:56:52.535Z,98426.55
2022-10-17T17:59:19.372Z,98426.24
2022-10-17T18:01:46.320Z,98426.74
2022-10-17T18:04:15.686Z,98426.13
2022-10-17T18:06:42.518Z,98429.16
2022-10-17T18:09:09.673Z,98430.17
2022-10-17T18:11:36.881Z,98427.13
2022-10-17T18:14:06.537Z,98426.42
2022-10-17T18:16:35.310Z,98425.39
2022-10-17T18:19:08.457Z,98428.21
2022-10-17T18:21:36.395Z,98424.08
2022-10-17T18:24:07.098Z,98428.23
2022-10-17T18:26:33.982Z,98425.63
2022-10-17T18:29:01.255Z,98429.48
2022-10-17T18:31:31.449Z,98428.02
2022-10-17T18:34:02.015Z,98428.23
2022-10-17T18:36:30.464Z,98425.46
2022-10-17T18:38:59.708Z,98429.05
2022-10-17T18:41:27.697Z,98429.82
2022-10-17T18:43:55.548Z,98429.95
2022-10-17T18:46:27.253Z,98429.31
2022-10-17T18:48:54.665Z,98435.41
2022-10-17T18:51:23.541Z,98438.39
2022-10-17T18:53:53.280Z,98438.79
2022-10-17T18:56:21.032Z,98435.83
2022-10-17T18:58:48.209Z,98436.14
2022-10-17T19:01:18.711Z,98439.91
2022-10-17T19:03:51.692Z,98441.70
2022-10-17T19:06:21.085Z,98439.34
2022-10-17T19:08:48.481Z,98441.74
2022-10-17T19:11:24.095Z,98438.53
2022-10-17T19:13:51.209Z,98436.55
2022-10-17T19:16:24.556Z,98442.16
2022-10-17T19:18:55.492Z,98447.44
2022-10-17T19:21:22.850Z,98447.39
2022-10-17T19:23:58.487Z,98444.96
2022-10-17T19:26:28.418Z,98444.95
2022-10-17T19:28:55.714Z,98443.19
2022-10-17T19:31:27.578Z,98447.68
2022-10-17T19:33:55.500Z,98447.65
2022-10-17T19:36:32.272Z,98451.57
2022-10-17T19:39:06.582Z,98449.52
2022-10-17T19:41:35.840Z,98449.91
2022-10-17T19:44:02.928Z,98452.66
2022-10-17T19:46:31.009Z,98453.06
2022-10-17T19:48:57.976Z,98451.88
2022-10-17T19:51:25.728Z,98448.38
2022-10-17T19:54:19.799Z,98450.75
2022-10-17T19:56:48.123Z,98447.65
2022-10-17T19:59:16.341Z,98446.38
2022-10-17T20:01:44.283Z,98447.14
2022-10-17T20:04:11.956Z,98448.41
2022-10-17T20:06:40.516Z,98442.87
2022-10-17T20:09:11.020Z,98440.42
2022-10-17T20:11:41.039Z,98439.95
2022-10-17T20:14:07.889Z,98439.39
2022-10-17T20:16:40.349Z,98436.69
2022-10-17T20:19:10.669Z,98436.59
2022-10-17T20:21:39.029Z,98434.62
2022-10-17T20:24:08.446Z,98439.88
2022-10-17T20:26:38.676Z,98439.98
2022-10-17T20:29:20.455Z,98441.60
2022-10-17T20:31:47.640Z,98433.27
2022-10-17T20:34:17.012Z,98435.83
2022-10-17T20:36:44.199Z,98435.70
2022-10-17T20:39:13.259Z,98441.32
2022-10-17T20:41:40.407Z,98441.39
2022-10-17T20:44:07.447Z,98440.48
2022-10-17T20:46:37.675Z,98438.19
2022-10-17T20:49:07.744Z,98434.09
2022-10-17T20:51:35.501Z,98435.38
2022-10-17T20:54:03.131Z,98429.73
2022-10-17T20:56:32.117Z,98433.45
2022-10-17T20:59:01.434Z,98438.35
2022-10-17T21:01:29.974Z,98435.98
2022-10-17T21:03:59.696Z,98438.19
2022-10-17T21:06:27.489Z,98438.64
2022-10-17T21:08:55.298Z,98435.96
2022-10-17T21:11:27.314Z,98436.58
2022-10-17T21:14:00.024Z,98439.38
2022-10-17T21:16:28.474Z,98441.21
2022-10-17T21:18:56.028Z,98442.94
2022-10-17T21:21:26.249Z,98441.38
2022-10-17T21:23:56.194Z,98439.90
2022-10-17T21:26:23.176Z,98442.98
2022-10-17T21:28:50.496Z,98439.02
2022-10-17T21:31:26.048Z,98441.45
2022-10-17T21:33:55.577Z,98441.26
2022-10-17T21:36:24.448Z,98437.17
2022-10-17T21:38:54.429Z,98436.97
2022-10-17T21:41:24.346Z,98434.75
2022-10-17T21:43:56.361Z,98438.80
2022-10-17T21:46:24.045Z,98439.50
2022-10-17T21:48:51.376Z,98438.83
2022-10-17T21:51:22.998Z,98437.77
2022-10-17T21:53:51.529Z,98438.85
2022-10-17T21:56:20.685Z,98439.86
2022-10-17T21:58:48.794Z,98437.58
2022-10-17T22:01:23.979Z,98432.74
2022-10-17T22:03:53.895Z,98430.04
2022-10-17T22:06:39.113Z,98426.88
2022-10-17T22:09:11.252Z,98425.80
2022-10-17T22:11:38.551Z,98433.77
2022-10-17T22:14:11.991Z,98431.19
2022-10-17T22:16:39.798Z,98428.58
2022-10-17T22:19:07.905Z,98425.09
2022-10-17T22:21:36.141Z,98424.35
2022-10-17T22:24:07.416Z,98423.13
2022-10-17T22:26:36.969Z,98425.59
2022-10-17T22:29:05.779Z,98428.21
2022-10-17T22:31:32.997Z,98419.98
2022-10-17T22:34:00.155Z,98416.34
2022-10-17T22:36:27.010Z,98412.65
2022-10-17T22:39:01.986Z,98412.57
2022-10-17T22:41:28.766Z,98416.61
2022-10-17T22:43:55.504Z,98419.37
2022-10-17T22:46:22.512Z,98420.27
2022-10-17T22:48:49.232Z,98415.54
2022-10-17T22:51:20.486Z,98416.42
2022-10-17T22:53:47.189Z,98414.25
2022-10-17T22:56:17.304Z,98416.06
2022-10-17T22:58:44.855Z,98418.77
2022-10-17T23:01:16.387Z,98416.07
2022-10-17T23:03:44.091Z,98410.15
2022-10-17T23:06:11.099Z,98405.47
2022-10-17T23:08:38.685Z,98406.21
2022-10-17T23:11:06.511Z,98406.89
2022-10-17T23:13:34.446Z,98402.77
2022-10-17T23:16:03.139Z,98401.53
2022-10-17T23:20:57.749Z,98400.35
2022-10-17T23:23:24.466Z,98400.35
2022-10-17T23:25:52.369Z,98405.89
2022-10-17T23:28:19.289Z,98404.67
2022-10-17T23:30:46.194Z,98407.45
2022-10-17T23:33:13.441Z,98409.18
2022-10-17T23:35:40.750Z,98416.14
2022-10-17T23:38:08.049Z,98415.77
2022-10-17T23:40:35.024Z,98413.36
2022-10-17T23:43:02.793Z,98410.52
2022-10-17T23:45:33.418Z,98405.77
2022-10-17T23:48:03.966Z,98405.77
2022-10-17T23:50:30.767Z,98403.19
2022-10-17T23:52:57.497Z,98397.95
2022-10-17T23:55:24.218Z,98394.61
2022-10-17T23:57:50.929Z,98390.69
